createdAt,value
2018-07-03T06:04:55.631Z,258.75
2018-07-03T06:05:55.459Z,264.38
2018-07-03T06:07:00.694Z,264.38
2018-07-03T06:10:09.059Z,264.38
2018-07-03T06:12:29.217Z,270.00
2018-07-03T06:14:55.951Z,270.00
2018-07-03T06:16:18.980Z,270.00
2018-07-03T06:16:56.591Z,270.00
2018-07-03T06:17:56.663Z,275.63
2018-07-03T06:18:58.516Z,270.00
2018-07-03T06:19:58.887Z,270.00
2018-07-03T06:21:11.731Z,275.63
2018-07-03T06:22:02.101Z,275.63
2018-07-03T06:22:57.296Z,275.63
2018-07-03T06:25:14.839Z,281.25
2018-07-03T06:26:02.361Z,281.25
2018-07-03T06:27:01.291Z,281.25
2018-07-03T06:27:59.232Z,286.88
2018-07-03T06:29:17.647Z,286.88
2018-07-03T06:31:09.584Z,286.88
2018-07-03T07:05:29.418Z,320.63
2018-07-03T07:06:30.219Z,320.63
2018-07-03T07:07:30.362Z,320.63
2018-07-03T07:08:32.617Z,326.25
2018-07-03T07:09:30.466Z,326.25
2018-07-03T07:10:31.295Z,326.25
2018-07-03T07:11:30.805Z,326.25
2018-07-03T07:16:26.520Z,331.88
2018-07-03T07:16:47.935Z,331.88
2018-07-03T07:23:34.907Z,337.50
2018-07-03T07:24:41.435Z,343.13
2018-07-03T07:26:43.532Z,343.13
2018-07-03T07:27:44.954Z,343.13
2018-07-03T07:31:36.722Z,348.75
2018-07-03T07:32:39.166Z,348.75
2018-07-03T07:33:37.603Z,348.75
2018-07-03T07:37:32.200Z,354.38
2018-07-03T07:39:02.071Z,354.38
2018-07-03T07:39:31.521Z,354.38
2018-07-03T07:41:36.990Z,354.38
2018-07-03T07:42:03.391Z,360.00
2018-07-03T07:43:42.304Z,360.00
2018-07-03T07:44:46.991Z,360.00
2018-07-03T07:45:43.122Z,360.00
2018-07-03T07:48:12.808Z,365.63
2018-07-03T07:54:00.395Z,371.25
2018-07-03T07:56:42.312Z,365.63
2018-07-03T07:57:04.847Z,365.63
2018-07-03T08:06:31.164Z,371.25
2018-07-03T08:18:52.307Z,388.13
2018-07-03T08:19:49.108Z,393.75
2018-07-03T08:26:49.544Z,461.25
2018-07-03T08:27:46.318Z,472.50
2018-07-03T08:28:46.872Z,478.13
2018-07-03T08:29:47.149Z,495.00
2018-07-03T08:30:45.027Z,506.25
2018-07-03T08:31:45.154Z,523.13
2018-07-03T08:32:45.303Z,540.00
2018-07-03T08:33:45.469Z,556.88
2018-07-03T08:34:45.669Z,568.13
2018-07-03T08:35:45.833Z,551.25
2018-07-03T08:36:46.014Z,489.38
2018-07-03T08:37:46.084Z,421.88
2018-07-03T08:38:46.311Z,410.63
2018-07-03T08:39:46.583Z,410.63
2018-07-03T08:40:46.771Z,410.63
2018-07-03T08:41:46.987Z,410.63
2018-07-03T08:42:47.135Z,410.63
2018-07-03T08:43:47.277Z,410.63
2018-07-03T08:44:47.432Z,416.25
2018-07-03T08:45:47.649Z,416.25
2018-07-03T08:46:47.788Z,421.88
2018-07-03T08:47:47.940Z,416.25
2018-07-03T08:48:48.198Z,421.88
2018-07-03T08:49:48.317Z,421.88
2018-07-03T08:50:48.527Z,421.88
2018-07-03T08:51:48.740Z,421.88
2018-07-03T08:52:48.910Z,427.50
2018-07-03T08:53:49.016Z,427.50
2018-07-03T08:54:49.265Z,427.50
2018-07-03T08:55:49.421Z,427.50
2018-07-03T08:56:49.616Z,427.50
2018-07-03T08:57:49.767Z,433.13
2018-07-03T08:58:49.922Z,433.13
2018-07-03T08:59:50.013Z,433.13
2018-07-03T09:00:50.273Z,433.13
2018-07-03T09:01:50.385Z,438.75
2018-07-03T09:02:50.660Z,438.75
2018-07-03T09:03:50.847Z,438.75
2018-07-03T09:04:51.043Z,444.38
2018-07-03T09:05:51.241Z,444.38
2018-07-03T09:06:51.368Z,450.00
2018-07-03T09:07:51.592Z,450.00
2018-07-03T09:08:51.723Z,455.63
2018-07-03T09:09:51.918Z,455.63
2018-07-03T09:10:52.112Z,461.25
2018-07-03T09:11:52.229Z,455.63
2018-07-03T09:12:52.475Z,461.25
2018-07-03T09:13:52.634Z,461.25
2018-07-03T09:14:52.741Z,461.25
2018-07-03T09:15:52.995Z,461.25
2018-07-03T09:16:53.155Z,466.88
2018-07-03T09:17:53.380Z,466.88
2018-07-03T09:18:53.567Z,466.88
2018-07-03T09:19:53.739Z,472.50
2018-07-03T09:20:53.924Z,466.88
2018-07-03T09:21:55.022Z,466.88
2018-07-03T09:22:54.272Z,466.88
2018-07-03T09:23:54.488Z,472.50
2018-07-03T09:24:54.694Z,466.88
2018-07-03T09:25:54.807Z,466.88
2018-07-03T09:26:54.932Z,466.88
2018-07-03T09:27:55.126Z,472.50
2018-07-03T09:28:55.274Z,472.50
2018-07-03T09:29:55.515Z,466.88
2018-07-03T09:30:55.757Z,466.88
2018-07-03T09:31:55.860Z,472.50
2018-07-03T09:32:56.039Z,466.88
2018-07-03T09:33:56.644Z,472.50
2018-07-03T09:34:56.361Z,466.88
2018-07-03T09:35:56.500Z,466.88
2018-07-03T09:36:56.685Z,466.88
2018-07-03T09:37:56.906Z,466.88
2018-07-03T09:38:57.081Z,466.88
2018-07-03T09:39:57.199Z,466.88
2018-07-03T09:40:57.362Z,466.88
2018-07-03T09:41:57.652Z,466.88
2018-07-03T09:42:57.808Z,466.88
2018-07-03T09:43:57.980Z,466.88
2018-07-03T09:44:58.096Z,466.88
2018-07-03T09:45:58.197Z,466.88
2018-07-03T09:46:58.406Z,466.88
2018-07-03T09:47:58.585Z,466.88
2018-07-03T09:48:58.796Z,472.50
2018-07-03T09:49:59.113Z,472.50
2018-07-03T09:50:59.156Z,472.50
2018-07-03T09:51:59.409Z,472.50
2018-07-03T09:52:59.954Z,472.50
2018-07-03T09:53:59.915Z,472.50
2018-07-03T09:55:00.185Z,478.13
2018-07-03T09:56:00.353Z,483.75
2018-07-03T09:57:00.421Z,478.13
2018-07-03T09:58:00.620Z,478.13
2018-07-03T09:59:01.013Z,483.75
2018-07-03T10:00:01.033Z,483.75
2018-07-03T10:01:01.004Z,483.75
2018-07-03T10:02:01.399Z,489.38
2018-07-03T10:03:01.545Z,489.38
2018-07-03T10:04:01.709Z,489.38
2018-07-03T10:05:02.615Z,495.00
2018-07-03T10:06:02.282Z,495.00
2018-07-03T10:07:02.325Z,500.63
2018-07-03T10:08:02.636Z,849.38
2018-07-03T10:09:02.636Z,1417.50
2018-07-03T10:10:02.869Z,2025.00
2018-07-03T10:11:03.054Z,2413.13
2018-07-03T10:12:03.187Z,2520.00
2018-07-03T10:13:03.416Z,2525.63
2018-07-03T10:14:03.629Z,2531.25
2018-07-03T10:15:04.109Z,2536.88
2018-07-03T10:16:04.313Z,2520.00
2018-07-03T10:17:04.604Z,2520.00
2018-07-03T10:18:04.607Z,2525.63
2018-07-03T10:19:04.558Z,2525.63
2018-07-03T10:20:04.686Z,2542.50
2018-07-03T10:21:04.886Z,2542.50
2018-07-03T10:22:04.963Z,2559.38
2018-07-03T10:23:05.323Z,2576.25
2018-07-03T10:24:05.405Z,2615.63
2018-07-03T10:25:05.543Z,2632.50
2018-07-03T10:26:05.821Z,2638.13
2018-07-03T10:27:05.861Z,2655.00
2018-07-03T10:28:06.245Z,2655.00
2018-07-03T10:29:06.471Z,2660.63
2018-07-03T10:30:06.448Z,2700.00
2018-07-03T10:31:06.765Z,2700.00
2018-07-03T10:32:07.118Z,2694.38
2018-07-03T10:33:07.057Z,2705.63
2018-07-03T10:34:07.292Z,2728.13
2018-07-03T10:35:07.507Z,2739.38
2018-07-03T10:36:07.668Z,2750.63
2018-07-03T10:37:07.834Z,2773.13
2018-07-03T10:38:07.963Z,2750.63
2018-07-03T10:39:08.288Z,2750.63
2018-07-03T10:40:08.388Z,2733.75
2018-07-03T10:41:08.653Z,2716.88
2018-07-03T10:42:08.828Z,2700.00
2018-07-03T10:43:08.915Z,2705.63
2018-07-03T10:44:09.194Z,2694.38
2018-07-03T10:45:09.348Z,2716.88
2018-07-03T10:46:09.451Z,2773.13
2018-07-03T10:47:09.592Z,2835.00
2018-07-03T10:48:09.782Z,2885.63
2018-07-03T10:49:10.040Z,2896.88
2018-07-03T10:50:10.539Z,2919.38
2018-07-03T10:51:10.483Z,2919.38
2018-07-03T10:52:10.636Z,2925.00
2018-07-03T10:53:10.795Z,2913.75
2018-07-03T10:54:11.050Z,2896.88
2018-07-03T10:55:11.234Z,2880.00
2018-07-03T10:56:11.469Z,2863.13
2018-07-03T10:57:11.661Z,2913.75
2018-07-03T10:58:11.901Z,2958.75
2018-07-03T10:59:12.145Z,3009.38
2018-07-03T11:00:12.262Z,3048.75
2018-07-03T11:01:12.232Z,3082.50
2018-07-03T11:02:12.541Z,3116.25
2018-07-03T11:03:12.670Z,3138.75
2018-07-03T11:04:12.910Z,3150.00
2018-07-03T11:05:13.035Z,3150.00
2018-07-03T11:06:14.274Z,3172.50
2018-07-03T11:07:13.525Z,3183.75
2018-07-03T11:08:13.468Z,3206.25
2018-07-03T11:09:13.676Z,3217.50
2018-07-03T11:10:13.803Z,3240.00
2018-07-03T11:11:14.084Z,3262.50
2018-07-03T11:12:14.337Z,3279.38
2018-07-03T11:13:14.507Z,3296.25
2018-07-03T11:14:14.701Z,3307.50
2018-07-03T11:15:14.777Z,3335.63
2018-07-03T11:16:14.989Z,3318.75
2018-07-03T11:17:15.194Z,3296.25
2018-07-03T11:18:15.319Z,3290.63
2018-07-03T11:19:15.601Z,3240.00
2018-07-03T11:20:15.855Z,3223.13
2018-07-03T11:21:15.946Z,3211.88
2018-07-03T11:22:16.112Z,3206.25
2018-07-03T11:23:16.308Z,3206.25
2018-07-03T11:24:16.429Z,3217.50
2018-07-03T11:25:16.729Z,3256.88
2018-07-03T11:26:16.800Z,3268.13
2018-07-03T11:27:17.117Z,3313.13
2018-07-03T11:28:17.210Z,3352.50
2018-07-03T11:29:17.719Z,3386.25
2018-07-03T11:30:17.579Z,3414.38
2018-07-03T11:31:17.742Z,3442.50
2018-07-03T11:32:17.856Z,3476.25
2018-07-03T11:33:18.034Z,3521.25
2018-07-03T11:34:18.292Z,3543.75
2018-07-03T11:35:18.953Z,3532.50
2018-07-03T11:36:18.603Z,3515.63
2018-07-03T11:37:18.747Z,3504.38
2018-07-03T11:38:19.025Z,3487.50
2018-07-03T11:39:19.215Z,3487.50
2018-07-03T11:40:19.510Z,3465.00
2018-07-03T11:41:19.738Z,3448.13
2018-07-03T11:42:20.923Z,3459.38
2018-07-03T11:43:21.208Z,3504.38
2018-07-03T11:44:20.253Z,3549.38
2018-07-03T11:45:20.462Z,3594.38
2018-07-03T11:46:20.646Z,3633.75
2018-07-03T11:47:20.793Z,3673.13
2018-07-03T11:48:21.044Z,3701.25
2018-07-03T11:49:24.497Z,3701.25
2018-07-03T11:50:21.837Z,3678.75
2018-07-03T11:51:21.576Z,3661.88
2018-07-03T11:52:22.067Z,3645.00
2018-07-03T11:53:22.288Z,3639.38
2018-07-03T11:54:22.236Z,3645.00
2018-07-03T11:55:22.726Z,3633.75
2018-07-03T11:56:22.647Z,3628.13
2018-07-03T11:57:22.706Z,3639.38
2018-07-03T11:58:23.154Z,3645.00
2018-07-03T11:59:23.185Z,3633.75
2018-07-03T12:00:23.372Z,3650.63
2018-07-03T12:01:23.625Z,3645.00
2018-07-03T12:02:23.646Z,3656.25
2018-07-03T12:03:23.948Z,3678.75
2018-07-03T12:04:24.663Z,3661.88
2018-07-03T12:05:24.452Z,3673.13
2018-07-03T12:06:24.238Z,3684.38
2018-07-03T12:07:24.489Z,3706.88
2018-07-03T12:08:24.632Z,3712.50
2018-07-03T12:09:25.080Z,3735.00
2018-07-03T12:10:25.144Z,3751.88
2018-07-03T12:11:25.669Z,3740.63
2018-07-03T12:12:25.619Z,3751.88
2018-07-03T12:13:25.796Z,3763.13
2018-07-03T12:14:26.135Z,3757.50
2018-07-03T12:15:26.411Z,3780.00
2018-07-03T12:16:26.340Z,3830.63
2018-07-03T12:17:26.545Z,3870.00
2018-07-03T12:18:26.838Z,3864.38
2018-07-03T12:19:26.966Z,3881.25
2018-07-03T12:20:27.162Z,3864.38
2018-07-03T12:21:27.255Z,3830.63
2018-07-03T12:22:27.432Z,3830.63
2018-07-03T12:23:27.667Z,3830.63
2018-07-03T12:24:27.950Z,3813.75
2018-07-03T12:25:28.037Z,3819.38
2018-07-03T12:26:28.289Z,3819.38
2018-07-03T12:27:28.447Z,3830.63
2018-07-03T12:28:28.561Z,3841.88
2018-07-03T12:29:28.715Z,3886.88
2018-07-03T12:30:29.114Z,3943.13
2018-07-03T12:31:30.417Z,3960.00
2018-07-03T12:32:30.176Z,3960.00
2018-07-03T12:33:29.583Z,3976.88
2018-07-03T12:34:29.734Z,3999.38
2018-07-03T12:35:30.021Z,4010.63
2018-07-03T12:36:30.134Z,3999.38
2018-07-03T12:37:30.383Z,3988.13
2018-07-03T12:38:30.688Z,3971.25
2018-07-03T12:39:30.850Z,3976.88
2018-07-03T12:40:30.994Z,3988.13
2018-07-03T12:41:31.198Z,3988.13
2018-07-03T12:42:31.294Z,4038.75
2018-07-03T12:43:31.564Z,4050.00
2018-07-03T12:44:31.770Z,4072.50
2018-07-03T12:45:32.149Z,4100.63
2018-07-03T12:46:32.111Z,4106.25
2018-07-03T12:47:32.375Z,4089.38
2018-07-03T12:48:32.486Z,4078.13
2018-07-03T12:49:32.672Z,4066.88
2018-07-03T12:50:32.862Z,4089.38
2018-07-03T12:51:33.092Z,4055.63
2018-07-03T12:52:33.281Z,4044.38
2018-07-03T12:53:33.441Z,4061.25
2018-07-03T12:54:33.617Z,4044.38
2018-07-03T12:55:33.816Z,4066.88
2018-07-03T12:56:34.036Z,4033.13
2018-07-03T12:57:34.100Z,4027.50
2018-07-03T12:58:34.354Z,4038.75
2018-07-03T12:59:34.552Z,4033.13
2018-07-03T13:00:34.659Z,4061.25
2018-07-03T13:01:34.870Z,4111.88
2018-07-03T13:02:35.121Z,4134.38
2018-07-03T13:03:35.291Z,4128.75
2018-07-03T13:04:35.405Z,4140.00
2018-07-03T13:05:35.596Z,4145.63
2018-07-03T13:06:35.842Z,4168.13
2018-07-03T13:07:36.038Z,4185.00
2018-07-03T13:08:36.253Z,4190.63
2018-07-03T13:09:36.374Z,4173.75
2018-07-03T13:10:36.586Z,4140.00
2018-07-03T13:11:36.700Z,4134.38
2018-07-03T13:12:36.908Z,4134.38
2018-07-03T13:13:37.114Z,4140.00
2018-07-03T13:14:37.300Z,4145.63
2018-07-03T13:15:37.479Z,4106.25
2018-07-03T13:16:37.690Z,4117.50
2018-07-03T13:17:37.858Z,4111.88
2018-07-03T13:18:37.997Z,4111.88
2018-07-03T13:19:38.282Z,4123.13
2018-07-03T13:20:38.508Z,4128.75
2018-07-03T13:21:38.722Z,4156.88
2018-07-03T13:22:38.929Z,4190.63
2018-07-03T13:23:39.029Z,4224.38
2018-07-03T13:24:39.262Z,4241.25
2018-07-03T13:25:39.352Z,4252.50
2018-07-03T13:26:39.565Z,4258.13
2018-07-03T13:27:39.794Z,4246.88
2018-07-03T13:28:40.010Z,4252.50
2018-07-03T13:29:40.110Z,4201.88
2018-07-03T13:30:40.331Z,4179.38
2018-07-03T13:31:40.571Z,4145.63
2018-07-03T13:32:40.740Z,4128.75
2018-07-03T13:33:40.905Z,4117.50
2018-07-03T13:34:41.034Z,4173.75
2018-07-03T13:35:41.235Z,4162.50
2018-07-03T13:36:41.440Z,4173.75
2018-07-03T13:37:41.572Z,4190.63
2018-07-03T13:38:41.816Z,4218.75
2018-07-03T13:39:42.031Z,4252.50
2018-07-03T13:40:42.182Z,4241.25
2018-07-03T13:41:42.359Z,4258.13
2018-07-03T13:42:42.607Z,4224.38
2018-07-03T13:43:42.775Z,4207.50
2018-07-03T13:44:42.893Z,4185.00
2018-07-03T13:45:43.191Z,4185.00
2018-07-03T13:46:43.374Z,4123.13
2018-07-03T13:47:43.532Z,4095.00
2018-07-03T13:48:43.679Z,4083.75
2018-07-03T13:49:43.837Z,4095.00
2018-07-03T13:50:44.085Z,4095.00
2018-07-03T13:51:44.263Z,4123.13
2018-07-03T13:52:44.413Z,4134.38
2018-07-03T13:53:44.663Z,4145.63
2018-07-03T13:54:44.887Z,4145.63
2018-07-03T13:55:45.072Z,4128.75
2018-07-03T13:56:45.341Z,4134.38
2018-07-03T13:57:45.430Z,4128.75
2018-07-03T13:58:45.653Z,4156.88
2018-07-03T13:59:45.997Z,4140.00
2018-07-03T14:00:46.029Z,4134.38
2018-07-03T14:01:46.322Z,4134.38
2018-07-03T14:02:46.471Z,4140.00
2018-07-03T14:03:46.576Z,4111.88
2018-07-03T14:04:46.783Z,4095.00
2018-07-03T14:05:46.963Z,4050.00
2018-07-03T14:06:47.206Z,4044.38
2018-07-03T14:07:47.470Z,4033.13
2018-07-03T14:08:47.923Z,4027.50
2018-07-03T14:17:19.053Z,3909.38
2018-07-03T14:18:13.496Z,3920.63
2018-07-03T14:19:02.120Z,3909.38
2018-07-03T14:40:25.178Z,3712.50
2018-07-03T14:40:41.271Z,3639.38
2018-07-03T14:41:18.250Z,3639.38
2018-07-03T14:42:18.240Z,3650.63
2018-07-03T14:43:18.531Z,3661.88
2018-07-03T14:44:18.496Z,3667.50
2018-07-03T14:45:18.975Z,3667.50
2018-07-03T14:46:18.991Z,3661.88
2018-07-03T14:47:19.166Z,3639.38
2018-07-03T14:48:19.759Z,3583.13
2018-07-03T14:49:19.655Z,3521.25
2018-07-03T14:50:19.964Z,3436.88
2018-07-03T14:51:19.884Z,3369.38
2018-07-03T14:52:20.325Z,3341.25
2018-07-03T14:53:20.376Z,3296.25
2018-07-03T14:54:20.470Z,3307.50
2018-07-03T14:55:20.503Z,3386.25
2018-07-03T14:56:20.825Z,3425.63
2018-07-03T14:57:21.086Z,3476.25
2018-07-03T14:58:21.268Z,3515.63
2018-07-03T14:59:21.664Z,3555.00
2018-07-03T15:00:21.685Z,3532.50
2018-07-03T15:01:21.962Z,3504.38
2018-07-03T15:02:22.139Z,3504.38
2018-07-03T15:03:22.677Z,3476.25
2018-07-03T15:04:22.871Z,3448.13
2018-07-03T15:05:22.711Z,3375.00
2018-07-03T15:06:23.062Z,3341.25
2018-07-03T15:07:23.214Z,3290.63
2018-07-03T15:08:23.604Z,3234.38
2018-07-03T15:09:23.608Z,3178.13
2018-07-03T15:10:23.944Z,3150.00
2018-07-03T15:11:24.158Z,3138.75
2018-07-03T15:12:24.401Z,3110.63
2018-07-03T15:13:24.418Z,3105.00
2018-07-03T15:14:24.723Z,3133.13
2018-07-03T15:15:24.853Z,3150.00
2018-07-03T15:16:25.064Z,3183.75
2018-07-03T15:17:25.268Z,3234.38
2018-07-03T15:18:25.373Z,3268.13
2018-07-03T15:19:25.539Z,3268.13
2018-07-03T15:20:26.257Z,3251.25
2018-07-03T15:21:25.851Z,3223.13
2018-07-03T15:22:26.166Z,3211.88
2018-07-03T15:23:26.407Z,3155.63
2018-07-03T15:24:26.491Z,3110.63
2018-07-03T15:25:26.889Z,3071.25
2018-07-03T15:26:27.285Z,3043.13
2018-07-03T15:27:27.343Z,3020.63
2018-07-03T15:28:27.441Z,3003.75
2018-07-03T15:29:27.604Z,3015.00
2018-07-03T15:30:28.013Z,3020.63
2018-07-03T15:31:27.926Z,3031.88
2018-07-03T15:32:27.957Z,3026.25
2018-07-03T15:33:28.307Z,2998.13
2018-07-03T15:34:28.495Z,2975.63
2018-07-03T15:35:28.623Z,2970.00
2018-07-03T15:36:28.753Z,2919.38
2018-07-03T15:37:29.038Z,2896.88
2018-07-03T15:38:29.293Z,2863.13
2018-07-03T15:39:29.627Z,2840.63
2018-07-03T15:40:29.527Z,2818.13
2018-07-03T15:41:29.922Z,2795.63
2018-07-03T15:42:30.179Z,2790.00
2018-07-03T15:43:30.439Z,2784.38
2018-07-03T15:44:30.784Z,2773.13
2018-07-03T15:45:30.634Z,2761.88
2018-07-03T15:46:30.948Z,2761.88
2018-07-03T15:47:31.109Z,2750.63
2018-07-03T15:48:31.048Z,2716.88
2018-07-03T15:49:31.123Z,2700.00
2018-07-03T15:50:31.387Z,2666.25
2018-07-03T15:51:31.550Z,2666.25
2018-07-03T15:52:31.805Z,2632.50
2018-07-03T15:53:31.909Z,2615.63
2018-07-03T15:54:32.120Z,2604.38
2018-07-03T15:55:32.238Z,2593.13
2018-07-03T15:56:32.464Z,2587.50
2018-07-03T15:57:32.730Z,2559.38
2018-07-03T15:58:32.858Z,2548.13
2018-07-03T15:59:33.087Z,2531.25
2018-07-03T16:00:33.220Z,2475.00
2018-07-03T16:01:33.421Z,2430.00
2018-07-03T16:02:33.638Z,2390.63
2018-07-03T16:03:33.727Z,2362.50
2018-07-03T16:04:33.997Z,2340.00
2018-07-03T16:05:34.168Z,2323.13
2018-07-03T16:06:34.273Z,2323.13
2018-07-03T16:07:34.680Z,2323.13
2018-07-03T16:08:34.739Z,2334.38
2018-07-03T16:09:34.969Z,2311.88
2018-07-03T16:10:35.081Z,2323.13
2018-07-03T16:11:35.330Z,2295.00
2018-07-03T16:12:35.461Z,2278.13
2018-07-03T16:13:35.651Z,2255.63
2018-07-03T16:14:35.828Z,2233.13
2018-07-03T16:15:35.947Z,2210.63
2018-07-03T16:16:36.165Z,2193.75
2018-07-03T16:17:36.319Z,2182.50
2018-07-03T16:18:36.510Z,2154.38
2018-07-03T16:19:36.649Z,2131.88
2018-07-03T16:20:36.816Z,2109.38
2018-07-03T16:21:37.025Z,2092.50
2018-07-03T16:22:37.172Z,2075.63
2018-07-03T16:23:37.362Z,2053.13
2018-07-03T16:24:37.530Z,2047.50
2018-07-03T16:25:37.803Z,2025.00
2018-07-03T16:26:37.898Z,2008.13
2018-07-03T16:27:38.110Z,1996.88
2018-07-03T16:28:38.287Z,1963.13
2018-07-03T16:29:38.493Z,1951.88
2018-07-03T16:30:38.658Z,1929.38
2018-07-03T16:31:38.756Z,1918.13
2018-07-03T16:32:39.066Z,1890.00
2018-07-03T16:33:39.158Z,1861.88
2018-07-03T16:34:39.366Z,1833.75
2018-07-03T16:35:39.549Z,1822.50
2018-07-03T16:36:39.775Z,1788.75
2018-07-03T16:37:39.945Z,1766.25
2018-07-03T16:38:40.205Z,1755.00
2018-07-03T16:39:40.364Z,1738.13
2018-07-03T16:40:40.529Z,1721.25
2018-07-03T16:41:40.628Z,1698.75
2018-07-03T16:42:40.826Z,1653.75
2018-07-03T16:43:41.058Z,1608.75
2018-07-03T16:44:41.216Z,1575.00
2018-07-03T16:45:41.321Z,1541.25
2018-07-03T16:46:41.563Z,1490.63
2018-07-03T16:47:41.690Z,1445.63
2018-07-03T16:48:41.892Z,1305.00
2018-07-03T16:49:42.075Z,990.00
2018-07-03T16:50:42.305Z,658.13
2018-07-03T16:51:42.461Z,556.88
2018-07-03T16:52:42.708Z,427.50
2018-07-03T16:53:42.779Z,478.13
2018-07-03T16:54:43.018Z,433.13
2018-07-03T16:55:43.165Z,292.50
2018-07-03T16:56:43.313Z,270.00
2018-07-03T16:57:43.511Z,270.00
2018-07-03T16:58:43.785Z,270.00
2018-07-03T16:59:43.881Z,275.63
2018-07-03T17:00:44.134Z,309.38
2018-07-03T17:01:44.229Z,399.38
2018-07-03T17:02:44.459Z,354.38
2018-07-03T17:03:44.606Z,388.13
2018-07-03T17:04:44.730Z,399.38
2018-07-03T17:05:44.946Z,382.50
2018-07-03T17:06:45.192Z,433.13
2018-07-03T17:07:45.356Z,450.00
2018-07-03T17:08:45.501Z,382.50
2018-07-03T17:09:45.751Z,281.25
2018-07-03T17:10:45.932Z,264.38
2018-07-03T17:11:46.021Z,270.00
2018-07-03T17:12:46.208Z,326.25
2018-07-03T17:13:46.470Z,399.38
2018-07-03T17:14:46.628Z,348.75
2018-07-03T17:15:46.834Z,258.75
2018-07-03T17:16:46.918Z,247.50
2018-07-03T17:17:47.161Z,247.50
2018-07-03T17:18:47.298Z,247.50
2018-07-03T17:19:47.493Z,241.88
2018-07-03T17:20:47.652Z,241.88
2018-07-03T17:21:47.809Z,236.25
2018-07-03T17:22:48.050Z,236.25
2018-07-03T17:23:48.199Z,236.25
2018-07-03T17:24:48.318Z,230.63
2018-07-03T17:25:48.531Z,230.63
2018-07-03T17:26:48.686Z,230.63
2018-07-03T17:27:48.970Z,225.00
2018-07-03T17:28:49.185Z,225.00
2018-07-03T17:29:49.250Z,225.00
2018-07-03T17:30:49.437Z,225.00
2018-07-03T17:31:49.673Z,219.38
2018-07-03T17:32:49.873Z,219.38
2018-07-03T17:33:50.305Z,219.38
2018-07-03T17:34:50.505Z,213.75
2018-07-03T17:35:50.606Z,213.75
2018-07-03T17:36:50.711Z,213.75
2018-07-03T17:37:50.780Z,213.75
2018-07-03T17:38:51.112Z,213.75
2018-07-03T17:39:51.151Z,208.13
2018-07-03T17:40:51.448Z,208.13
2018-07-03T17:41:51.511Z,208.13
2018-07-03T17:42:51.699Z,202.50
2018-07-03T17:43:51.830Z,202.50
2018-07-03T17:44:52.099Z,202.50
2018-07-03T17:45:52.211Z,202.50
2018-07-03T17:46:52.442Z,196.88
2018-07-03T17:47:52.882Z,196.88
2018-07-03T17:48:52.802Z,196.88
2018-07-03T17:49:52.869Z,196.88
2018-07-03T17:50:52.984Z,191.25
2018-07-03T17:51:53.218Z,191.25
2018-07-03T17:52:53.661Z,191.25
2018-07-03T17:53:53.490Z,191.25
2018-07-03T17:54:53.716Z,191.25
2018-07-03T17:55:53.981Z,191.25
2018-07-03T17:56:54.153Z,191.25
2018-07-03T17:57:54.335Z,185.63
2018-07-03T17:58:54.576Z,185.63
2018-07-03T17:59:54.791Z,185.63
2018-07-03T18:00:54.976Z,185.63
2018-07-03T18:01:55.068Z,180.00
2018-07-03T18:02:55.404Z,180.00
2018-07-03T18:03:55.433Z,180.00
2018-07-03T18:04:56.174Z,180.00
2018-07-03T18:05:55.854Z,174.38
2018-07-03T18:06:56.096Z,174.38
2018-07-03T18:07:56.346Z,174.38
2018-07-03T18:08:56.470Z,174.38
2018-07-03T18:09:56.659Z,168.75
2018-07-03T18:10:56.930Z,168.75
2018-07-03T18:11:57.090Z,168.75
2018-07-03T18:12:57.126Z,168.75
2018-07-03T18:13:57.273Z,163.13
2018-07-03T18:14:57.538Z,163.13
2018-07-03T18:15:57.725Z,163.13
2018-07-03T18:16:57.960Z,157.50
2018-07-03T18:17:58.078Z,157.50
2018-07-03T18:18:58.326Z,157.50
2018-07-03T18:19:58.560Z,157.50
2018-07-03T18:20:58.699Z,151.88
2018-07-03T18:21:58.895Z,151.88
2018-07-03T18:22:59.225Z,151.88
2018-07-03T18:23:59.217Z,151.88
2018-07-03T18:24:59.614Z,146.25
2018-07-03T18:25:59.682Z,146.25
2018-07-03T18:26:59.981Z,146.25
2018-07-03T18:28:00.044Z,140.63
2018-07-03T18:29:00.338Z,140.63
2018-07-03T18:30:00.377Z,140.63
2018-07-03T18:31:00.632Z,135.00
2018-07-03T18:32:00.898Z,135.00
2018-07-03T18:33:01.118Z,135.00
2018-07-03T18:34:01.284Z,129.38
2018-07-03T18:35:01.459Z,129.38
2018-07-03T18:36:01.594Z,129.38
2018-07-03T18:37:01.785Z,123.75
2018-07-03T18:38:01.910Z,123.75
2018-07-03T18:39:02.148Z,123.75
2018-07-03T18:40:02.221Z,118.13
2018-07-03T18:41:03.075Z,118.13
2018-07-03T18:42:02.993Z,118.13
2018-07-03T18:43:03.016Z,112.50
2018-07-03T18:44:03.170Z,112.50
2018-07-03T18:45:03.379Z,112.50
2018-07-03T18:46:03.594Z,106.88
2018-07-03T18:47:03.598Z,106.88
2018-07-03T18:48:04.286Z,101.25
2018-07-03T18:49:04.079Z,101.25
2018-07-03T18:50:04.280Z,101.25
2018-07-03T18:51:04.466Z,95.63
2018-07-03T18:52:04.624Z,95.63
2018-07-03T18:53:04.823Z,95.63
2018-07-03T18:54:05.088Z,95.63
2018-07-03T18:55:04.992Z,95.63
2018-07-03T18:56:05.130Z,90.00
2018-07-03T18:57:05.396Z,90.00
2018-07-03T18:58:05.382Z,84.38
2018-07-03T18:59:05.710Z,84.38
2018-07-03T19:00:05.850Z,78.75
2018-07-03T19:01:05.954Z,78.75
2018-07-03T19:02:06.246Z,73.13
2018-07-03T19:03:06.480Z,73.13
2018-07-03T19:04:06.634Z,67.50
2018-07-03T19:05:06.825Z,67.50
2018-07-03T19:06:07.037Z,61.88
2018-07-03T19:07:07.296Z,61.88
2018-07-03T19:08:07.599Z,61.88
2018-07-03T19:09:07.651Z,56.25
2018-07-03T19:10:07.912Z,56.25
2018-07-03T19:11:08.069Z,50.63
2018-07-03T19:12:08.180Z,50.63
2018-07-03T19:13:08.498Z,50.63
2018-07-03T19:14:08.585Z,45.00
2018-07-03T19:15:08.906Z,45.00
2018-07-03T19:16:08.940Z,45.00
2018-07-03T19:17:09.334Z,39.38
2018-07-03T19:18:09.366Z,39.38
2018-07-03T19:19:09.518Z,39.38
2018-07-03T19:20:09.691Z,33.75
2018-07-03T19:21:09.891Z,33.75
2018-07-03T19:22:10.035Z,33.75
2018-07-03T19:23:10.214Z,33.75
2018-07-03T19:24:10.553Z,28.13
2018-07-03T19:25:10.631Z,28.13
2018-07-03T19:26:10.867Z,28.13
2018-07-03T19:27:10.917Z,22.50
2018-07-03T19:28:11.282Z,22.50
2018-07-03T19:29:11.337Z,22.50
2018-07-03T19:30:11.442Z,22.50
2018-07-03T19:31:11.648Z,16.88
2018-07-03T19:32:11.854Z,16.88
2018-07-03T19:33:11.920Z,16.88
2018-07-03T19:34:12.264Z,16.88
2018-07-03T19:35:12.290Z,16.88
2018-07-03T19:36:12.611Z,11.25
2018-07-03T19:37:12.797Z,11.25
2018-07-03T19:38:12.834Z,11.25
2018-07-03T19:39:13.156Z,11.25
2018-07-03T19:40:13.189Z,11.25
2018-07-03T19:41:13.505Z,11.25
2018-07-03T19:42:13.709Z,5.63
2018-07-03T19:43:13.889Z,5.63
2018-07-03T19:44:14.193Z,5.63
2018-07-03T19:45:14.321Z,5.63
2018-07-03T19:46:14.523Z,5.63
2018-07-03T19:47:14.741Z,5.63
2018-07-03T19:48:15.223Z,5.63
2018-07-03T19:49:15.174Z,5.63
2018-07-03T19:50:15.300Z,0.00
2018-07-03T19:51:15.489Z,0.00
2018-07-03T19:52:15.683Z,0.00
2018-07-03T19:53:15.948Z,0.00
2018-07-03T19:54:16.304Z,0.00
2018-07-03T19:55:16.355Z,0.00
2018-07-03T19:56:16.672Z,0.00
2018-07-03T19:57:16.458Z,0.00
2018-07-03T19:58:16.736Z,0.00
2018-07-03T19:59:17.009Z,0.00
2018-07-03T20:00:17.921Z,0.00
2018-07-03T20:01:17.511Z,0.00
2018-07-03T20:02:17.493Z,0.00
2018-07-03T20:03:17.657Z,0.00
2018-07-03T20:04:18.038Z,0.00
2018-07-03T20:05:17.920Z,0.00
2018-07-03T20:06:18.179Z,0.00
2018-07-03T20:07:18.273Z,0.00
2018-07-03T20:08:18.520Z,0.00
2018-07-03T20:09:18.688Z,0.00
2018-07-03T20:10:18.706Z,0.00
2018-07-03T20:11:19.132Z,0.00
2018-07-03T20:12:19.349Z,0.00
2018-07-03T20:13:19.641Z,0.00
2018-07-03T20:14:19.419Z,0.00
2018-07-03T20:15:19.542Z,0.00
2018-07-03T20:16:20.050Z,0.00
2018-07-03T20:17:19.980Z,0.00
2018-07-03T20:18:20.286Z,0.00
2018-07-03T20:19:20.570Z,0.00
2018-07-03T20:20:20.907Z,0.00
2018-07-03T20:21:20.870Z,0.00
2018-07-03T20:22:21.073Z,0.00
2018-07-03T20:23:21.153Z,0.00
2018-07-03T20:24:21.669Z,0.00
2018-07-03T20:25:21.692Z,0.00